sensor_id;sensor_type;location;lat;lon;timestamp;pressure;altitude;pressure_sealevel;temperature;humidity
20111;BME280;10216;42.658;23.248;2022-10-31T00:01:23;94215.88;;;11.85;69.74
20111;BME280;10216;42.658;23.248;2022-10-31T00:03:48;94217.00;;;11.99;68.87
20111;BME280;10216;42.658;23.248;2022-10-31T00:06:15;94214.94;;;12.02;68.39
20111;BME280;10216;42.658;23.248;2022-10-31T00:08:43;94206.56;;;12.08;68.52
20111;BME280;10216;42.658;23.248;2022-10-31T00:11:09;94196.13;;;12.10;68.44
20111;BME280;10216;42.658;23.248;2022-10-31T00:13:35;94210.25;;;12.06;68.72
20111;BME280;10216;42.658;23.248;2022-10-31T00:16:00;94211.72;;;12.00;69.48
20111;BME280;10216;42.658;23.248;2022-10-31T00:18:26;94213.63;;;11.98;69.46
20111;BME280;10216;42.658;23.248;2022-10-31T00:21:02;94211.06;;;12.06;69.52
20111;BME280;10216;42.658;23.248;2022-10-31T00:23:28;94217.19;;;12.05;69.27
20111;BME280;10216;42.658;23.248;2022-10-31T00:25:53;94221.88;;;12.10;69.77
20111;BME280;10216;42.658;23.248;2022-10-31T00:28:19;94218.94;;;12.13;69.76
20111;BME280;10216;42.658;23.248;2022-10-31T00:30:44;94212.19;;;12.12;69.51
20111;BME280;10216;42.658;23.248;2022-10-31T00:33:09;94203.84;;;12.10;70.35
20111;BME280;10216;42.658;23.248;2022-10-31T00:35:35;94207.03;;;12.04;71.53
20111;BME280;10216;42.658;23.248;2022-10-31T00:38:00;94207.53;;;11.91;71.45
20111;BME280;10216;42.658;23.248;2022-10-31T00:40:26;94204.63;;;11.78;72.34
20111;BME280;10216;42.658;23.248;2022-10-31T00:42:51;94205.91;;;11.74;71.91
20111;BME280;10216;42.658;23.248;2022-10-31T00:45:16;94198.34;;;11.89;71.02
20111;BME280;10216;42.658;23.248;2022-10-31T00:47:42;94199.81;;;11.91;71.73
20111;BME280;10216;42.658;23.248;2022-10-31T00:50:07;94200.91;;;11.89;71.96
20111;BME280;10216;42.658;23.248;2022-10-31T00:52:33;94200.47;;;11.93;71.62
20111;BME280;10216;42.658;23.248;2022-10-31T00:54:58;94200.44;;;11.77;72.87
20111;BME280;10216;42.658;23.248;2022-10-31T00:57:24;94195.78;;;11.81;71.90
20111;BME280;10216;42.658;23.248;2022-10-31T00:59:49;94195.00;;;11.88;71.60
20111;BME280;10216;42.658;23.248;2022-10-31T01:02:17;94203.84;;;11.94;71.60
20111;BME280;10216;42.658;23.248;2022-10-31T01:04:42;94203.84;;;12.02;71.08
20111;BME280;10216;42.658;23.248;2022-10-31T01:07:07;94201.44;;;12.08;70.53
20111;BME280;10216;42.658;23.248;2022-10-31T01:09:33;94205.28;;;12.29;69.23
20111;BME280;10216;42.658;23.248;2022-10-31T01:11:59;94208.16;;;12.42;69.03
20111;BME280;10216;42.658;23.248;2022-10-31T01:14:24;94209.78;;;12.43;68.72
20111;BME280;10216;42.658;23.248;2022-10-31T01:16:50;94212.19;;;12.36;69.47
20111;BME280;10216;42.658;23.248;2022-10-31T01:19:16;94215.88;;;12.26;69.83
20111;BME280;10216;42.658;23.248;2022-10-31T01:21:41;94217.66;;;12.33;70.30
20111;BME280;10216;42.658;23.248;2022-10-31T01:24:08;94218.00;;;12.22;71.69
20111;BME280;10216;42.658;23.248;2022-10-31T01:26:33;94218.31;;;12.19;72.22
20111;BME280;10216;42.658;23.248;2022-10-31T01:29:05;94214.63;;;12.22;72.24
20111;BME280;10216;42.658;23.248;2022-10-31T01:31:34;94214.47;;;12.31;71.42
20111;BME280;10216;42.658;23.248;2022-10-31T01:34:00;94207.19;;;12.43;70.96
20111;BME280;10216;42.658;23.248;2022-10-31T01:36:31;94207.50;;;12.56;70.39
20111;BME280;10216;42.658;23.248;2022-10-31T01:39:00;94199.28;;;12.61;69.76
20111;BME280;10216;42.658;23.248;2022-10-31T01:41:28;94208.59;;;12.78;69.01
20111;BME280;10216;42.658;23.248;2022-10-31T01:44:00;94205.84;;;12.87;69.27
20111;BME280;10216;42.658;23.248;2022-10-31T01:46:35;94211.41;;;12.99;69.11
20111;BME280;10216;42.658;23.248;2022-10-31T01:49:06;94208.81;;;13.07;68.47
20111;BME280;10216;42.658;23.248;2022-10-31T01:51:36;94205.94;;;13.10;68.85
20111;BME280;10216;42.658;23.248;2022-10-31T01:54:06;94208.66;;;13.09;68.30
20111;BME280;10216;42.658;23.248;2022-10-31T01:56:34;94218.00;;;13.18;68.76
20111;BME280;10216;42.658;23.248;2022-10-31T01:59:05;94213.00;;;13.24;68.57
20111;BME280;10216;42.658;23.248;2022-10-31T02:01:33;94217.59;;;13.37;68.41
20111;BME280;10216;42.658;23.248;2022-10-31T02:03:59;94210.84;;;13.36;68.62
20111;BME280;10216;42.658;23.248;2022-10-31T02:09:00;94216.00;;;13.36;68.91
20111;BME280;10216;42.658;23.248;2022-10-31T02:11:28;94215.19;;;13.36;68.69
20111;BME280;10216;42.658;23.248;2022-10-31T02:13:54;94218.72;;;13.35;68.55
20111;BME280;10216;42.658;23.248;2022-10-31T02:16:19;94214.06;;;13.38;68.45
20111;BME280;10216;42.658;23.248;2022-10-31T02:18:44;94206.81;;;13.34;69.12
20111;BME280;10216;42.658;23.248;2022-10-31T02:21:45;94207.31;;;13.29;69.77
20111;BME280;10216;42.658;23.248;2022-10-31T02:24:34;94211.16;;;13.33;69.48
20111;BME280;10216;42.658;23.248;2022-10-31T02:30:14;94214.78;;;13.16;70.63
20111;BME280;10216;42.658;23.248;2022-10-31T02:32:42;94220.25;;;13.05;71.34
20111;BME280;10216;42.658;23.248;2022-10-31T02:38:16;94229.97;;;12.95;71.09
20111;BME280;10216;42.658;23.248;2022-10-31T02:46:31;94238.53;;;12.87;70.76
20111;BME280;10216;42.658;23.248;2022-10-31T02:49:06;94236.75;;;12.87;70.46
20111;BME280;10216;42.658;23.248;2022-10-31T02:51:33;94240.75;;;12.90;69.94
20111;BME280;10216;42.658;23.248;2022-10-31T02:54:01;94236.25;;;12.84;70.28
20111;BME280;10216;42.658;23.248;2022-10-31T02:56:26;94242.06;;;12.78;69.85
20111;BME280;10216;42.658;23.248;2022-10-31T02:58:57;94240.31;;;12.70;69.92
20111;BME280;10216;42.658;23.248;2022-10-31T03:11:58;94249.50;;;12.57;71.04
20111;BME280;10216;42.658;23.248;2022-10-31T03:14:41;94245.16;;;12.57;71.21
20111;BME280;10216;42.658;23.248;2022-10-31T03:17:15;94247.25;;;12.62;71.01
20111;BME280;10216;42.658;23.248;2022-10-31T03:19:47;94251.28;;;12.64;70.81
20111;BME280;10216;42.658;23.248;2022-10-31T03:22:21;94242.91;;;12.62;70.74
20111;BME280;10216;42.658;23.248;2022-10-31T03:24:47;94245.66;;;12.52;71.08
20111;BME280;10216;42.658;23.248;2022-10-31T03:27:18;94246.63;;;12.43;71.38
20111;BME280;10216;42.658;23.248;2022-10-31T03:29:47;94252.28;;;12.31;71.47
20111;BME280;10216;42.658;23.248;2022-10-31T03:35:08;94257.91;;;12.10;72.37
20111;BME280;10216;42.658;23.248;2022-10-31T03:37:35;94264.81;;;12.09;72.36
20111;BME280;10216;42.658;23.248;2022-10-31T03:40:03;94260.78;;;12.07;72.13
20111;BME280;10216;42.658;23.248;2022-10-31T03:42:33;94263.34;;;12.07;72.20
20111;BME280;10216;42.658;23.248;2022-10-31T03:45:06;94266.41;;;12.02;73.07
20111;BME280;10216;42.658;23.248;2022-10-31T03:47:37;94262.06;;;12.11;72.90
20111;BME280;10216;42.658;23.248;2022-10-31T03:50:05;94271.53;;;12.19;72.34
20111;BME280;10216;42.658;23.248;2022-10-31T03:52:57;94271.25;;;12.22;72.72
20111;BME280;10216;42.658;23.248;2022-10-31T03:55:34;94268.66;;;12.22;72.68
20111;BME280;10216;42.658;23.248;2022-10-31T03:58:32;94272.19;;;12.12;72.78
20111;BME280;10216;42.658;23.248;2022-10-31T04:01:05;94269.78;;;11.95;73.06
20111;BME280;10216;42.658;23.248;2022-10-31T04:03:34;94274.25;;;11.85;73.63
20111;BME280;10216;42.658;23.248;2022-10-31T04:06:08;94276.28;;;11.73;74.15
20111;BME280;10216;42.658;23.248;2022-10-31T04:08:39;94277.84;;;11.58;75.26
20111;BME280;10216;42.658;23.248;2022-10-31T04:11:08;94276.56;;;11.62;75.04
20111;BME280;10216;42.658;23.248;2022-10-31T04:13:37;94278.81;;;11.65;75.08
20111;BME280;10216;42.658;23.248;2022-10-31T04:16:03;94276.69;;;11.60;75.78
20111;BME280;10216;42.658;23.248;2022-10-31T04:18:29;94274.50;;;11.65;75.85
20111;BME280;10216;42.658;23.248;2022-10-31T04:21:05;94282.09;;;11.83;75.40
20111;BME280;10216;42.658;23.248;2022-10-31T04:23:32;94275.72;;;11.95;74.88
20111;BME280;10216;42.658;23.248;2022-10-31T04:25:58;94278.63;;;12.00;74.67
20111;BME280;10216;42.658;23.248;2022-10-31T04:28:23;94277.50;;;12.03;75.56
20111;BME280;10216;42.658;23.248;2022-10-31T04:30:49;94280.41;;;12.08;75.30
20111;BME280;10216;42.658;23.248;2022-10-31T04:33:14;94281.84;;;12.10;75.05
20111;BME280;10216;42.658;23.248;2022-10-31T04:35:40;94274.47;;;12.16;75.36
20111;BME280;10216;42.658;23.248;2022-10-31T04:38:05;94280.88;;;12.20;75.51
20111;BME280;10216;42.658;23.248;2022-10-31T04:40:30;94286.34;;;12.25;75.02
20111;BME280;10216;42.658;23.248;2022-10-31T04:42:56;94282.00;;;12.25;75.19
20111;BME280;10216;42.658;23.248;2022-10-31T04:45:21;94287.66;;;12.29;75.00
20111;BME280;10216;42.658;23.248;2022-10-31T04:47:47;94282.81;;;12.34;75.27
20111;BME280;10216;42.658;23.248;2022-10-31T04:50:12;94290.25;;;12.37;74.92
20111;BME280;10216;42.658;23.248;2022-10-31T04:52:43;94290.25;;;12.37;75.16
20111;BME280;10216;42.658;23.248;2022-10-31T04:55:09;94286.38;;;12.41;74.47
20111;BME280;10216;42.658;23.248;2022-10-31T04:57:42;94294.44;;;12.46;74.08
20111;BME280;10216;42.658;23.248;2022-10-31T05:00:09;94295.72;;;12.50;74.75
20111;BME280;10216;42.658;23.248;2022-10-31T05:02:52;94298.94;;;12.52;74.98
20111;BME280;10216;42.658;23.248;2022-10-31T05:05:20;94304.41;;;12.57;74.70
20111;BME280;10216;42.658;23.248;2022-10-31T05:07:47;94304.56;;;12.56;74.52
20111;BME280;10216;42.658;23.248;2022-10-31T05:10:16;94317.94;;;12.51;74.88
20111;BME280;10216;42.658;23.248;2022-10-31T05:12:52;94312.44;;;12.54;75.09
20111;BME280;10216;42.658;23.248;2022-10-31T05:15:19;94310.22;;;12.59;74.47
20111;BME280;10216;42.658;23.248;2022-10-31T05:17:45;94310.38;;;12.66;74.09
20111;BME280;10216;42.658;23.248;2022-10-31T05:20:12;94314.88;;;12.72;74.38
20111;BME280;10216;42.658;23.248;2022-10-31T05:22:42;94317.75;;;12.77;73.92
20111;BME280;10216;42.658;23.248;2022-10-31T05:25:08;94320.97;;;12.79;74.12
20111;BME280;10216;42.658;23.248;2022-10-31T05:27:34;94315.03;;;12.78;73.96
20111;BME280;10216;42.658;23.248;2022-10-31T05:29:59;94318.56;;;12.69;74.17
20111;BME280;10216;42.658;23.248;2022-10-31T05:32:24;94311.47;;;12.55;74.71
20111;BME280;10216;42.658;23.248;2022-10-31T05:34:50;94316.00;;;12.45;75.32
20111;BME280;10216;42.658;23.248;2022-10-31T05:37:15;94319.81;;;12.33;75.48
20111;BME280;10216;42.658;23.248;2022-10-31T05:39:40;94325.78;;;12.25;76.01
20111;BME280;10216;42.658;23.248;2022-10-31T05:42:06;94328.03;;;12.20;76.30
20111;BME280;10216;42.658;23.248;2022-10-31T05:44:31;94334.75;;;12.13;76.92
20111;BME280;10216;42.658;23.248;2022-10-31T05:46:56;94336.34;;;12.06;77.54
20111;BME280;10216;42.658;23.248;2022-10-31T05:49:22;94333.09;;;11.96;77.89
20111;BME280;10216;42.658;23.248;2022-10-31T05:51:48;94340.66;;;11.97;78.31
20111;BME280;10216;42.658;23.248;2022-10-31T05:54:13;94329.56;;;11.97;78.63
20111;BME280;10216;42.658;23.248;2022-10-31T05:56:38;94340.03;;;11.87;79.60
20111;BME280;10216;42.658;23.248;2022-10-31T05:59:04;94332.00;;;11.98;78.90
20111;BME280;10216;42.658;23.248;2022-10-31T06:01:29;94337.66;;;12.02;78.41
20111;BME280;10216;42.658;23.248;2022-10-31T06:03:54;94340.84;;;12.04;78.21
20111;BME280;10216;42.658;23.248;2022-10-31T06:06:20;94339.88;;;12.05;78.57
20111;BME280;10216;42.658;23.248;2022-10-31T06:08:45;94343.28;;;12.13;78.43
20111;BME280;10216;42.658;23.248;2022-10-31T06:11:11;94344.41;;;12.11;78.62
20111;BME280;10216;42.658;23.248;2022-10-31T06:13:36;94351.03;;;12.13;78.66
20111;BME280;10216;42.658;23.248;2022-10-31T06:16:01;94349.91;;;12.16;78.46
20111;BME280;10216;42.658;23.248;2022-10-31T06:18:27;94358.44;;;12.17;79.25
20111;BME280;10216;42.658;23.248;2022-10-31T06:20:52;94351.19;;;12.20;78.93
20111;BME280;10216;42.658;23.248;2022-10-31T06:23:17;94362.81;;;12.24;78.27
20111;BME280;10216;42.658;23.248;2022-10-31T06:25:43;94364.88;;;12.29;78.53
20111;BME280;10216;42.658;23.248;2022-10-31T06:28:08;94363.59;;;12.33;78.37
20111;BME280;10216;42.658;23.248;2022-10-31T06:30:34;94366.19;;;12.41;77.95
20111;BME280;10216;42.658;23.248;2022-10-31T06:33:03;94373.47;;;12.45;77.69
20111;BME280;10216;42.658;23.248;2022-10-31T06:35:29;94375.41;;;12.51;78.04
20111;BME280;10216;42.658;23.248;2022-10-31T06:37:55;94376.53;;;12.57;77.26
20111;BME280;10216;42.658;23.248;2022-10-31T06:40:21;94377.00;;;12.52;77.66
20111;BME280;10216;42.658;23.248;2022-10-31T06:42:47;94376.69;;;12.64;77.65
20111;BME280;10216;42.658;23.248;2022-10-31T06:45:12;94374.78;;;12.74;77.11
20111;BME280;10216;42.658;23.248;2022-10-31T06:47:38;94388.13;;;12.77;77.46
20111;BME280;10216;42.658;23.248;2022-10-31T06:50:04;94382.81;;;12.87;77.09
20111;BME280;10216;42.658;23.248;2022-10-31T06:52:29;94377.16;;;12.91;76.63
20111;BME280;10216;42.658;23.248;2022-10-31T06:54:54;94380.09;;;12.97;75.65
20111;BME280;10216;42.658;23.248;2022-10-31T06:57:20;94374.75;;;13.06;75.44
20111;BME280;10216;42.658;23.248;2022-10-31T06:59:45;94381.69;;;13.14;74.78
20111;BME280;10216;42.658;23.248;2022-10-31T07:02:10;94381.84;;;13.20;73.93
20111;BME280;10216;42.658;23.248;2022-10-31T07:04:36;94382.66;;;13.37;73.17
20111;BME280;10216;42.658;23.248;2022-10-31T07:07:01;94384.69;;;13.66;72.12
20111;BME280;10216;42.658;23.248;2022-10-31T07:09:27;94383.19;;;13.80;71.35
20111;BME280;10216;42.658;23.248;2022-10-31T07:11:52;94385.06;;;13.94;70.39
20111;BME280;10216;42.658;23.248;2022-10-31T07:14:18;94394.97;;;14.13;69.98
20111;BME280;10216;42.658;23.248;2022-10-31T07:16:43;94390.41;;;14.23;68.59
20111;BME280;10216;42.658;23.248;2022-10-31T07:19:09;94391.03;;;14.33;68.29
20111;BME280;10216;42.658;23.248;2022-10-31T07:21:34;94397.28;;;14.47;67.98
20111;BME280;10216;42.658;23.248;2022-10-31T07:23:59;94396.66;;;14.68;67.80
20111;BME280;10216;42.658;23.248;2022-10-31T07:26:27;94387.19;;;14.83;66.95
20111;BME280;10216;42.658;23.248;2022-10-31T07:28:53;94385.31;;;14.92;66.45
20111;BME280;10216;42.658;23.248;2022-10-31T07:31:18;94377.38;;;15.16;66.08
20111;BME280;10216;42.658;23.248;2022-10-31T07:33:43;94374.81;;;15.31;65.25
20111;BME280;10216;42.658;23.248;2022-10-31T07:36:09;94365.91;;;15.48;64.92
20111;BME280;10216;42.658;23.248;2022-10-31T07:38:34;94363.72;;;15.59;64.34
20111;BME280;10216;42.658;23.248;2022-10-31T07:40:59;94368.09;;;15.59;63.61
20111;BME280;10216;42.658;23.248;2022-10-31T07:43:25;94373.63;;;15.56;63.92
20111;BME280;10216;42.658;23.248;2022-10-31T07:45:54;94371.22;;;15.69;63.67
20111;BME280;10216;42.658;23.248;2022-10-31T07:48:21;94367.38;;;15.80;62.96
20111;BME280;10216;42.658;23.248;2022-10-31T07:50:46;94366.47;;;16.02;62.38
20111;BME280;10216;42.658;23.248;2022-10-31T07:53:13;94363.88;;;16.02;62.41
20111;BME280;10216;42.658;23.248;2022-10-31T07:55:40;94370.75;;;15.95;61.89
20111;BME280;10216;42.658;23.248;2022-10-31T07:58:16;94368.59;;;16.28;60.96
20111;BME280;10216;42.658;23.248;2022-10-31T08:00:44;94369.47;;;16.35;61.34
20111;BME280;10216;42.658;23.248;2022-10-31T08:03:14;94370.84;;;16.37;61.46
20111;BME280;10216;42.658;23.248;2022-10-31T08:05:40;94381.13;;;16.46;60.60
20111;BME280;10216;42.658;23.248;2022-10-31T08:08:06;94373.22;;;16.54;61.14
20111;BME280;10216;42.658;23.248;2022-10-31T08:10:33;94376.44;;;16.56;61.04
20111;BME280;10216;42.658;23.248;2022-10-31T08:13:03;94370.47;;;16.55;61.40
20111;BME280;10216;42.658;23.248;2022-10-31T08:15:29;94376.19;;;16.51;61.29
20111;BME280;10216;42.658;23.248;2022-10-31T08:17:55;94373.22;;;16.54;60.70
20111;BME280;10216;42.658;23.248;2022-10-31T08:20:20;94377.78;;;16.66;60.77
20111;BME280;10216;42.658;23.248;2022-10-31T08:23:01;94369.47;;;16.71;61.10
20111;BME280;10216;42.658;23.248;2022-10-31T08:25:29;94376.38;;;16.64;61.79
20111;BME280;10216;42.658;23.248;2022-10-31T08:27:55;94380.13;;;16.61;61.03
20111;BME280;10216;42.658;23.248;2022-10-31T08:30:23;94378.16;;;16.63;60.48
20111;BME280;10216;42.658;23.248;2022-10-31T08:33:01;94381.34;;;16.65;61.16
20111;BME280;10216;42.658;23.248;2022-10-31T08:35:27;94374.19;;;16.67;60.94
20111;BME280;10216;42.658;23.248;2022-10-31T08:37:54;94382.72;;;16.83;60.25
20111;BME280;10216;42.658;23.248;2022-10-31T08:40:20;94381.34;;;16.87;61.00
20111;BME280;10216;42.658;23.248;2022-10-31T08:42:45;94378.97;;;16.85;59.70
20111;BME280;10216;42.658;23.248;2022-10-31T08:45:11;94379.91;;;16.77;59.84
20111;BME280;10216;42.658;23.248;2022-10-31T08:47:36;94383.72;;;16.82;60.63
20111;BME280;10216;42.658;23.248;2022-10-31T08:50:02;94379.63;;;16.94;60.33
20111;BME280;10216;42.658;23.248;2022-10-31T08:52:30;94374.31;;;16.81;59.89
20111;BME280;10216;42.658;23.248;2022-10-31T08:54:56;94384.28;;;16.98;60.02
20111;BME280;10216;42.658;23.248;2022-10-31T08:57:21;94383.34;;;17.06;59.66
20111;BME280;10216;42.658;23.248;2022-10-31T08:59:46;94380.28;;;17.24;58.92
20111;BME280;10216;42.658;23.248;2022-10-31T09:02:12;94379.44;;;17.44;58.96
20111;BME280;10216;42.658;23.248;2022-10-31T09:04:37;94381.31;;;17.50;57.96
20111;BME280;10216;42.658;23.248;2022-10-31T09:07:04;94380.50;;;17.78;58.12
20111;BME280;10216;42.658;23.248;2022-10-31T09:09:29;94382.19;;;17.92;56.83
20111;BME280;10216;42.658;23.248;2022-10-31T09:11:54;94380.00;;;18.02;55.84
20111;BME280;10216;42.658;23.248;2022-10-31T09:14:20;94375.50;;;18.17;55.52
20111;BME280;10216;42.658;23.248;2022-10-31T09:16:45;94377.75;;;18.33;55.00
20111;BME280;10216;42.658;23.248;2022-10-31T09:19:10;94382.06;;;18.61;54.90
20111;BME280;10216;42.658;23.248;2022-10-31T09:21:36;94386.53;;;18.80;53.41
20111;BME280;10216;42.658;23.248;2022-10-31T09:24:01;94380.94;;;18.96;52.25
20111;BME280;10216;42.658;23.248;2022-10-31T09:26:26;94377.53;;;19.09;53.55
20111;BME280;10216;42.658;23.248;2022-10-31T09:28:52;94372.56;;;19.21;51.82
20111;BME280;10216;42.658;23.248;2022-10-31T09:31:17;94374.94;;;19.42;52.04
20111;BME280;10216;42.658;23.248;2022-10-31T09:33:42;94369.75;;;19.42;50.84
20111;BME280;10216;42.658;23.248;2022-10-31T09:36:08;94365.91;;;19.77;50.84
20111;BME280;10216;42.658;23.248;2022-10-31T09:38:33;94367.78;;;20.21;49.56
20111;BME280;10216;42.658;23.248;2022-10-31T09:41:18;94374.22;;;20.70;48.72
20111;BME280;10216;42.658;23.248;2022-10-31T09:44:07;94367.22;;;21.27;47.67
20111;BME280;10216;42.658;23.248;2022-10-31T09:52:20;94369.78;;;23.39;44.22
20111;BME280;10216;42.658;23.248;2022-10-31T09:54:54;94370.97;;;23.66;42.89
20111;BME280;10216;42.658;23.248;2022-10-31T09:57:42;94373.72;;;23.71;42.43
20111;BME280;10216;42.658;23.248;2022-10-31T10:00:19;94370.41;;;24.63;42.50
20111;BME280;10216;42.658;23.248;2022-10-31T10:02:56;94370.31;;;25.81;39.11
20111;BME280;10216;42.658;23.248;2022-10-31T10:08:18;94370.44;;;27.86;36.63
20111;BME280;10216;42.658;23.248;2022-10-31T10:10:51;94360.69;;;27.91;35.49
20111;BME280;10216;42.658;23.248;2022-10-31T10:22:29;94358.44;;;31.82;30.33
20111;BME280;10216;42.658;23.248;2022-10-31T10:30:21;94354.06;;;33.61;27.71
20111;BME280;10216;42.658;23.248;2022-10-31T10:32:51;94350.59;;;33.93;26.76
20111;BME280;10216;42.658;23.248;2022-10-31T10:35:32;94341.88;;;34.20;26.60
20111;BME280;10216;42.658;23.248;2022-10-31T10:38:03;94344.13;;;34.95;25.85
20111;BME280;10216;42.658;23.248;2022-10-31T10:40:32;94335.84;;;35.77;24.88
20111;BME280;10216;42.658;23.248;2022-10-31T10:48:42;94321.75;;;35.05;25.06
20111;BME280;10216;42.658;23.248;2022-10-31T10:51:27;94330.47;;;35.33;25.13
20111;BME280;10216;42.658;23.248;2022-10-31T10:57:11;94322.38;;;33.79;26.02
20111;BME280;10216;42.658;23.248;2022-10-31T10:59:38;94322.19;;;34.02;26.28
20111;BME280;10216;42.658;23.248;2022-10-31T11:02:16;94324.63;;;35.08;25.44
20111;BME280;10216;42.658;23.248;2022-10-31T11:04:42;94329.13;;;36.19;24.36
20111;BME280;10216;42.658;23.248;2022-10-31T11:07:10;94327.88;;;37.94;23.44
20111;BME280;10216;42.658;23.248;2022-10-31T11:09:37;94326.03;;;38.33;22.46
20111;BME280;10216;42.658;23.248;2022-10-31T11:12:29;94322.34;;;38.08;22.95
20111;BME280;10216;42.658;23.248;2022-10-31T11:14:56;94321.13;;;37.88;22.58
20111;BME280;10216;42.658;23.248;2022-10-31T11:17:32;94307.06;;;36.62;23.77
20111;BME280;10216;42.658;23.248;2022-10-31T11:22:43;94304.53;;;35.78;24.04
20111;BME280;10216;42.658;23.248;2022-10-31T11:25:23;94304.97;;;37.24;23.66
20111;BME280;10216;42.658;23.248;2022-10-31T11:28:06;94303.16;;;36.68;23.22
20111;BME280;10216;42.658;23.248;2022-10-31T11:31:07;94300.50;;;36.76;23.66
20111;BME280;10216;42.658;23.248;2022-10-31T11:33:50;94299.81;;;37.91;22.92
20111;BME280;10216;42.658;23.248;2022-10-31T11:36:23;94287.47;;;34.98;24.98
20111;BME280;10216;42.658;23.248;2022-10-31T11:38:50;94293.25;;;36.68;23.43
20111;BME280;10216;42.658;23.248;2022-10-31T11:41:17;94292.13;;;38.57;22.79
20111;BME280;10216;42.658;23.248;2022-10-31T11:43:51;94300.81;;;39.46;21.82
20111;BME280;10216;42.658;23.248;2022-10-31T11:46:36;94299.69;;;39.80;21.09
20111;BME280;10216;42.658;23.248;2022-10-31T11:49:04;94303.44;;;39.55;22.31
20111;BME280;10216;42.658;23.248;2022-10-31T11:51:32;94291.88;;;41.09;21.50
20111;BME280;10216;42.658;23.248;2022-10-31T11:53:59;94300.56;;;41.86;20.51
20111;BME280;10216;42.658;23.248;2022-10-31T11:56:27;94298.56;;;42.61;20.31
20111;BME280;10216;42.658;23.248;2022-10-31T11:59:03;94292.97;;;42.86;19.94
20111;BME280;10216;42.658;23.248;2022-10-31T12:01:31;94288.41;;;41.36;19.89
20111;BME280;10216;42.658;23.248;2022-10-31T12:04:09;94278.13;;;41.54;19.77
20111;BME280;10216;42.658;23.248;2022-10-31T12:06:36;94281.78;;;42.21;19.18
20111;BME280;10216;42.658;23.248;2022-10-31T12:20:53;94275.94;;;42.19;19.73
20111;BME280;10216;42.658;23.248;2022-10-31T12:37:33;94259.06;;;38.86;21.63
20111;BME280;10216;42.658;23.248;2022-10-31T12:45:54;94258.94;;;39.57;21.88
20111;BME280;10216;42.658;23.248;2022-10-31T12:48:44;94259.94;;;39.53;21.59
20111;BME280;10216;42.658;23.248;2022-10-31T12:57:10;94236.41;;;30.65;30.22
20111;BME280;10216;42.658;23.248;2022-10-31T12:59:48;94230.75;;;28.57;32.60
20111;BME280;10216;42.658;23.248;2022-10-31T13:02:35;94236.34;;;27.04;34.65
20111;BME280;10216;42.658;23.248;2022-10-31T13:08:02;94225.16;;;24.79;39.73
20111;BME280;10216;42.658;23.248;2022-10-31T13:10:33;94222.53;;;23.77;41.28
20111;BME280;10216;42.658;23.248;2022-10-31T13:13:31;94229.09;;;23.05;42.78
20111;BME280;10216;42.658;23.248;2022-10-31T13:16:04;94230.78;;;22.46;44.07
20111;BME280;10216;42.658;23.248;2022-10-31T13:18:50;94230.88;;;22.09;44.31
20111;BME280;10216;42.658;23.248;2022-10-31T13:21:21;94231.88;;;21.90;45.13
20111;BME280;10216;42.658;23.248;2022-10-31T13:23:50;94228.31;;;21.73;46.25
20111;BME280;10216;42.658;23.248;2022-10-31T13:26:37;94221.03;;;21.57;45.46
20111;BME280;10216;42.658;23.248;2022-10-31T13:29:18;94218.19;;;21.40;46.17
20111;BME280;10216;42.658;23.248;2022-10-31T13:31:45;94227.66;;;21.23;47.06
20111;BME280;10216;42.658;23.248;2022-10-31T13:34:20;94227.94;;;21.08;47.22
20111;BME280;10216;42.658;23.248;2022-10-31T13:36:53;94223.72;;;20.89;49.18
20111;BME280;10216;42.658;23.248;2022-10-31T13:42:10;94218.09;;;20.60;49.59
20111;BME280;10216;42.658;23.248;2022-10-31T13:44:38;94219.66;;;20.43;49.87
20111;BME280;10216;42.658;23.248;2022-10-31T13:47:21;94218.47;;;20.39;48.23
20111;BME280;10216;42.658;23.248;2022-10-31T13:49:47;94221.72;;;20.35;48.92
20111;BME280;10216;42.658;23.248;2022-10-31T13:52:13;94217.34;;;20.22;50.28
20111;BME280;10216;42.658;23.248;2022-10-31T13:54:50;94224.25;;;20.10;50.38
20111;BME280;10216;42.658;23.248;2022-10-31T13:57:42;94216.72;;;19.88;51.80
20111;BME280;10216;42.658;23.248;2022-10-31T14:02:49;94220.66;;;19.60;53.07
20111;BME280;10216;42.658;23.248;2022-10-31T14:05:33;94223.13;;;19.48;54.11
20111;BME280;10216;42.658;23.248;2022-10-31T14:08:03;94221.69;;;19.39;53.58
20111;BME280;10216;42.658;23.248;2022-10-31T14:10:32;94219.13;;;19.32;53.56
20111;BME280;10216;42.658;23.248;2022-10-31T14:13:14;94224.94;;;19.28;54.18
20111;BME280;10216;42.658;23.248;2022-10-31T14:15:54;94226.56;;;19.29;53.32
20111;BME280;10216;42.658;23.248;2022-10-31T14:18:38;94235.38;;;19.21;54.10
20111;BME280;10216;42.658;23.248;2022-10-31T14:23:49;94231.41;;;18.92;54.80
20111;BME280;10216;42.658;23.248;2022-10-31T14:28:43;94238.22;;;18.73;55.35
20111;BME280;10216;42.658;23.248;2022-10-31T14:31:36;94238.22;;;18.60;56.93
20111;BME280;10216;42.658;23.248;2022-10-31T14:34:19;94243.56;;;18.46;56.95
20111;BME280;10216;42.658;23.248;2022-10-31T14:45:21;94243.06;;;17.89;58.84
20111;BME280;10216;42.658;23.248;2022-10-31T14:51:02;94240.72;;;17.60;59.69
20111;BME280;10216;42.658;23.248;2022-10-31T14:53:46;94240.31;;;17.50;60.10
20111;BME280;10216;42.658;23.248;2022-10-31T14:56:12;94236.25;;;17.41;59.68
20111;BME280;10216;42.658;23.248;2022-10-31T14:58:45;94231.63;;;17.36;59.76
20111;BME280;10216;42.658;23.248;2022-10-31T15:01:27;94238.53;;;17.23;59.24
20111;BME280;10216;42.658;23.248;2022-10-31T15:03:58;94240.06;;;17.10;59.96
20111;BME280;10216;42.658;23.248;2022-10-31T15:06:26;94238.88;;;17.06;60.29
20111;BME280;10216;42.658;23.248;2022-10-31T15:08:53;94246.34;;;16.95;60.28